createdAt,value
2023-01-11T00:01:35.353Z,6.20
2023-01-11T00:04:03.709Z,6.20
2023-01-11T00:06:33.474Z,6.30
2023-01-11T00:09:02.373Z,6.30
2023-01-11T00:11:30.845Z,6.40
2023-01-11T00:13:58.960Z,6.30
2023-01-11T00:16:27.064Z,6.30
2023-01-11T00:18:55.211Z,6.40
2023-01-11T00:21:23.244Z,6.40
2023-01-11T00:23:52.646Z,6.40
2023-01-11T00:26:20.706Z,6.40
2023-01-11T00:28:49.610Z,6.40
2023-01-11T00:31:18.097Z,6.40
2023-01-11T00:33:46.147Z,6.40
2023-01-11T00:36:14.228Z,6.40
2023-01-11T00:38:46.898Z,6.40
2023-01-11T00:41:40.348Z,6.40
2023-01-11T00:44:27.974Z,6.40
2023-01-11T00:47:13.745Z,6.40
2023-01-11T00:49:41.905Z,6.50
2023-01-11T00:52:10.561Z,6.50
2023-01-11T00:54:39.484Z,6.50
2023-01-11T00:57:09.388Z,6.50
2023-01-11T00:59:39.257Z,6.50
2023-01-11T01:02:07.695Z,6.50
2023-01-11T01:04:36.048Z,6.50
2023-01-11T01:07:04.642Z,6.60
2023-01-11T01:09:33.334Z,6.60
2023-01-11T01:12:02.418Z,6.60
2023-01-11T01:14:33.086Z,6.60
2023-01-11T01:17:03.266Z,6.70
2023-01-11T01:19:32.612Z,6.70
2023-01-11T01:22:01.309Z,6.70
2023-01-11T01:24:30.858Z,6.80
2023-01-11T01:26:59.745Z,6.80
2023-01-11T01:29:27.821Z,6.80
2023-01-11T01:31:57.235Z,6.80
2023-01-11T01:34:25.240Z,6.90
2023-01-11T01:36:53.236Z,6.90
2023-01-11T01:39:21.277Z,6.90
2023-01-11T01:41:49.369Z,6.90
2023-01-11T01:44:56.325Z,6.90
2023-01-11T01:47:30.480Z,6.90
2023-01-11T01:49:59.981Z,7.00
2023-01-11T01:52:29.350Z,7.00
2023-01-11T01:55:01.072Z,7.00
2023-01-11T01:57:32.451Z,6.90
2023-01-11T02:00:03.939Z,7.00
2023-01-11T02:02:37.093Z,7.00
2023-01-11T02:05:06.764Z,7.00
2023-01-11T02:07:37.388Z,7.00
2023-01-11T02:10:08.388Z,7.10
2023-01-11T02:12:39.383Z,7.10
2023-01-11T02:15:08.595Z,7.00
2023-01-11T02:17:38.033Z,7.10
2023-01-11T02:20:17.691Z,7.10
2023-01-11T02:23:16.501Z,7.10
2023-01-11T02:26:15.949Z,7.10
2023-01-11T02:28:51.852Z,7.10
2023-01-11T02:31:30.010Z,7.10
2023-01-11T02:34:10.759Z,7.20
2023-01-11T02:36:48.388Z,7.20
2023-01-11T02:39:22.319Z,7.20
2023-01-11T02:42:14.689Z,7.30
2023-01-11T02:45:02.247Z,7.30
2023-01-11T02:47:39.210Z,7.30
2023-01-11T02:50:14.213Z,7.30
2023-01-11T02:52:51.978Z,7.40
2023-01-11T02:55:25.161Z,7.40
2023-01-11T02:57:55.562Z,7.40
2023-01-11T03:00:25.816Z,7.40
2023-01-11T03:03:13.500Z,7.50
2023-01-11T03:05:48.154Z,7.50
2023-01-11T03:08:31.991Z,7.50
2023-01-11T03:11:06.027Z,7.50
2023-01-11T03:13:41.656Z,7.50
2023-01-11T03:16:24.392Z,7.60
2023-01-11T03:18:58.549Z,7.60
2023-01-11T03:21:43.834Z,7.70
2023-01-11T03:24:20.286Z,7.60
2023-01-11T03:27:00.183Z,7.60
2023-01-11T03:29:33.297Z,7.70
2023-01-11T03:32:18.438Z,7.70
2023-01-11T03:34:53.931Z,7.70
2023-01-11T03:37:27.846Z,7.70
2023-01-11T03:40:04.093Z,7.80
2023-01-11T03:42:34.907Z,7.70
2023-01-11T03:45:04.920Z,7.80
2023-01-11T03:47:35.816Z,7.80
2023-01-11T03:50:07.690Z,7.80
2023-01-11T03:52:41.424Z,7.80
2023-01-11T03:55:13.268Z,7.80
2023-01-11T03:57:47.133Z,7.80
2023-01-11T04:00:15.661Z,7.80
2023-01-11T04:02:45.049Z,7.80
2023-01-11T04:05:13.385Z,7.90
2023-01-11T04:07:41.435Z,7.80
2023-01-11T04:10:10.772Z,7.90
2023-01-11T04:12:38.815Z,7.90
2023-01-11T04:15:09.368Z,7.90
2023-01-11T04:17:37.396Z,7.90
2023-01-11T04:20:08.135Z,7.90
2023-01-11T04:22:36.215Z,7.90
2023-01-11T04:25:04.778Z,8.00
2023-01-11T04:27:32.838Z,8.00
2023-01-11T04:30:00.878Z,8.00
2023-01-11T04:32:28.878Z,8.00
2023-01-11T04:34:56.897Z,8.00
2023-01-11T04:37:26.294Z,8.00
2023-01-11T04:39:54.288Z,8.00
2023-01-11T04:42:21.521Z,8.00
2023-01-11T04:44:51.113Z,8.10
2023-01-11T04:47:20.998Z,8.10
2023-01-11T04:49:49.132Z,8.10
2023-01-11T04:52:18.806Z,8.10
2023-01-11T04:54:48.777Z,8.20
2023-01-11T04:57:18.117Z,8.20
2023-01-11T04:59:46.720Z,8.20
2023-01-11T05:02:14.923Z,8.20
2023-01-11T05:04:42.959Z,8.20
2023-01-11T05:07:11.838Z,8.30
2023-01-11T05:09:40.761Z,8.30
2023-01-11T05:12:10.186Z,8.30
2023-01-11T05:14:38.168Z,8.30
2023-01-11T05:17:06.189Z,8.30
2023-01-11T05:19:34.225Z,8.40
2023-01-11T05:22:02.239Z,8.40
2023-01-11T05:24:30.253Z,8.40
2023-01-11T05:26:58.283Z,8.40
2023-01-11T05:29:28.559Z,8.40
2023-01-11T05:31:57.302Z,8.50
2023-01-11T05:34:25.288Z,8.40
2023-01-11T05:36:53.308Z,8.50
2023-01-11T05:39:22.996Z,8.50
2023-01-11T05:41:51.068Z,8.50
2023-01-11T05:44:37.185Z,8.60
2023-01-11T05:47:06.569Z,8.60
2023-01-11T05:49:34.565Z,8.60
2023-01-11T05:52:02.562Z,8.60
2023-01-11T05:54:30.559Z,8.60
2023-01-11T05:56:59.233Z,8.60
2023-01-11T05:59:27.316Z,8.60
2023-01-11T06:01:55.385Z,8.70
2023-01-11T06:04:24.765Z,8.70
2023-01-11T06:06:52.927Z,8.70
2023-01-11T06:09:20.956Z,8.70
2023-01-11T06:11:50.543Z,8.70
2023-01-11T06:14:18.682Z,8.80
2023-01-11T06:16:46.825Z,8.90
2023-01-11T06:19:15.128Z,8.80
2023-01-11T06:21:44.497Z,8.90
2023-01-11T06:24:12.607Z,8.90
2023-01-11T06:26:40.652Z,8.90
2023-01-11T06:29:08.708Z,8.90
2023-01-11T06:31:36.869Z,8.90
2023-01-11T06:34:04.878Z,8.90
2023-01-11T06:36:32.896Z,9.00
2023-01-11T06:39:03.636Z,8.90
2023-01-11T06:41:31.734Z,8.90
2023-01-11T06:43:59.762Z,9.00
2023-01-11T06:46:29.146Z,9.00
2023-01-11T06:48:57.322Z,9.00
2023-01-11T06:51:25.336Z,9.00
2023-01-11T06:53:53.313Z,9.10
2023-01-11T06:56:23.742Z,9.10
2023-01-11T06:58:52.648Z,9.10
2023-01-11T07:01:20.936Z,9.20
2023-01-11T07:03:49.140Z,9.20
2023-01-11T07:06:17.516Z,9.20
2023-01-11T07:08:46.059Z,9.20
2023-01-11T07:11:15.713Z,9.30
2023-01-11T07:13:45.269Z,9.30
2023-01-11T07:16:13.327Z,9.30
2023-01-11T07:18:41.327Z,9.30
2023-01-11T07:21:11.043Z,9.30
2023-01-11T07:23:40.693Z,9.30
2023-01-11T07:26:09.350Z,9.30
2023-01-11T07:28:39.205Z,9.20
2023-01-11T07:31:09.601Z,9.20
2023-01-11T07:33:38.320Z,9.20
2023-01-11T07:36:07.952Z,9.20
2023-01-11T07:38:36.934Z,9.20
2023-01-11T07:41:25.893Z,9.20
2023-01-11T07:43:53.817Z,9.20
2023-01-11T07:46:23.857Z,9.20
2023-01-11T07:48:52.409Z,9.20
2023-01-11T07:51:24.238Z,9.20
2023-01-11T07:53:53.344Z,9.10
2023-01-11T07:56:23.578Z,9.10
2023-01-11T07:58:52.211Z,9.10
2023-01-11T08:01:21.280Z,9.00
2023-01-11T08:03:51.195Z,9.00
2023-01-11T08:06:19.538Z,9.10
2023-01-11T08:08:48.513Z,9.10
2023-01-11T08:11:34.530Z,9.10
2023-01-11T08:14:20.193Z,9.20
2023-01-11T08:16:48.663Z,9.20
2023-01-11T08:19:18.797Z,9.20
2023-01-11T08:21:47.419Z,9.10
2023-01-11T08:24:16.294Z,9.20
2023-01-11T08:26:45.340Z,9.20
2023-01-11T08:29:14.136Z,9.20
2023-01-11T08:31:45.252Z,9.20
2023-01-11T08:34:13.936Z,9.20
2023-01-11T08:36:43.477Z,9.30
2023-01-11T08:39:12.022Z,9.30
2023-01-11T08:41:40.295Z,9.30
2023-01-11T08:44:09.276Z,9.30
2023-01-11T08:46:38.098Z,9.30
2023-01-11T08:49:11.958Z,9.30
2023-01-11T08:51:40.332Z,9.30
2023-01-11T08:54:12.835Z,9.30
2023-01-11T08:56:41.481Z,9.30
2023-01-11T08:59:12.097Z,9.30
2023-01-11T09:01:40.206Z,9.20
2023-01-11T09:04:23.177Z,9.30
2023-01-11T09:06:52.140Z,9.30
2023-01-11T09:09:21.481Z,9.40
2023-01-11T09:11:56.465Z,9.40
2023-01-11T09:14:26.549Z,9.50
2023-01-11T09:16:55.109Z,9.50
2023-01-11T09:19:23.661Z,9.40
2023-01-11T09:21:52.936Z,9.40
2023-01-11T09:24:22.379Z,9.30
2023-01-11T09:26:50.461Z,9.30
2023-01-11T09:29:18.996Z,9.30
2023-01-11T09:31:47.112Z,9.30
2023-01-11T09:34:16.415Z,9.30
2023-01-11T09:36:46.187Z,9.30
2023-01-11T09:39:18.425Z,9.30
2023-01-11T09:42:12.703Z,9.30
2023-01-11T09:44:50.760Z,9.40
2023-01-11T09:47:26.412Z,9.40
2023-01-11T09:49:58.854Z,9.40
2023-01-11T09:52:32.859Z,9.40
2023-01-11T09:55:02.454Z,9.40
2023-01-11T09:57:44.225Z,9.40
2023-01-11T10:00:22.862Z,9.30
2023-01-11T10:03:07.751Z,9.40
2023-01-11T10:05:53.873Z,9.30
2023-01-11T10:18:29.104Z,9.40
2023-01-11T10:18:31.138Z,9.30
2023-01-11T10:20:37.779Z,9.30
2023-01-11T10:23:12.376Z,9.40
2023-01-11T10:25:50.464Z,9.30
2023-01-11T10:28:27.584Z,9.40
2023-01-11T10:31:28.707Z,9.50
2023-01-11T10:34:18.535Z,9.40
2023-01-11T10:37:10.847Z,9.40
2023-01-11T10:40:06.422Z,9.40
2023-01-11T10:42:43.646Z,9.50
2023-01-11T10:45:17.684Z,9.40
2023-01-11T10:47:56.186Z,9.50
2023-01-11T10:50:29.527Z,9.50
2023-01-11T10:53:04.520Z,9.50
2023-01-11T10:55:40.884Z,9.50
2023-01-11T10:58:19.899Z,9.50
2023-01-11T11:00:58.659Z,9.60
2023-01-11T11:03:50.025Z,9.60
2023-01-11T11:06:26.886Z,9.50
2023-01-11T11:08:59.196Z,9.50
2023-01-11T11:11:36.141Z,9.50
2023-01-11T11:14:13.742Z,9.50
2023-01-11T11:17:02.475Z,9.50
2023-01-11T11:19:34.016Z,9.60
2023-01-11T11:22:02.039Z,9.60
2023-01-11T11:24:36.785Z,9.60
2023-01-11T11:27:15.854Z,9.60
2023-01-11T11:29:50.400Z,9.70
2023-01-11T11:32:24.138Z,9.70
2023-01-11T11:34:54.476Z,9.70
2023-01-11T11:37:25.434Z,9.80
2023-01-11T11:39:54.819Z,9.70
2023-01-11T11:42:23.306Z,9.80
2023-01-11T11:45:16.907Z,9.80
2023-01-11T11:48:02.080Z,9.80
2023-01-11T11:50:44.193Z,9.80
2023-01-11T11:53:24.436Z,9.80
2023-01-11T11:55:53.691Z,9.80
2023-01-11T11:58:23.776Z,9.80
2023-01-11T12:00:54.407Z,9.80
2023-01-11T12:03:28.307Z,9.80
2023-01-11T12:06:01.784Z,9.80
2023-01-11T12:08:32.552Z,9.80
2023-01-11T12:11:02.726Z,9.80
2023-01-11T12:13:33.399Z,9.80
2023-01-11T12:16:03.062Z,9.80
2023-01-11T12:18:41.301Z,9.80
2023-01-11T12:21:21.496Z,9.90
2023-01-11T12:24:03.792Z,9.80
2023-01-11T12:26:35.638Z,9.80
2023-01-11T12:29:29.759Z,9.80
2023-01-11T12:32:18.644Z,9.80
2023-01-11T12:35:07.394Z,9.80
2023-01-11T12:37:55.594Z,9.80
2023-01-11T12:40:36.021Z,9.80
2023-01-11T12:43:24.951Z,9.80
2023-01-11T12:46:03.815Z,9.80
2023-01-11T12:48:52.191Z,9.80
2023-01-11T12:51:34.421Z,9.90
2023-01-11T12:54:19.219Z,9.90
2023-01-11T12:57:07.126Z,9.90
2023-01-11T12:59:54.939Z,9.90
2023-01-11T13:02:43.233Z,9.90
2023-01-11T13:05:24.188Z,10.00
2023-01-11T13:08:04.550Z,10.10
2023-01-11T13:10:48.880Z,10.10
2023-01-11T13:13:22.033Z,10.20
2023-01-11T13:15:57.127Z,10.20
2023-01-11T13:18:33.324Z,10.10
2023-01-11T13:21:08.528Z,10.10
2023-01-11T13:23:43.004Z,10.00
2023-01-11T13:26:20.663Z,10.00
2023-01-11T13:28:54.254Z,10.00
2023-01-11T13:31:24.038Z,10.00
2023-01-11T13:33:58.972Z,9.90
2023-01-11T13:36:31.260Z,9.90
2023-01-11T13:39:04.195Z,9.90
2023-01-11T13:41:46.371Z,9.80
2023-01-11T13:44:20.753Z,9.80
2023-01-11T13:47:01.129Z,9.70
2023-01-11T13:49:52.612Z,9.70
2023-01-11T13:52:37.796Z,9.70
2023-01-11T13:55:20.780Z,9.70
2023-01-11T13:57:59.418Z,9.70
2023-01-11T14:00:32.561Z,9.70
2023-01-11T14:03:11.204Z,9.70
2023-01-11T14:05:45.645Z,9.60
2023-01-11T14:08:26.138Z,9.60
2023-01-11T14:11:06.069Z,9.60
2023-01-11T14:14:14.288Z,9.60
2023-01-11T14:16:58.167Z,9.50
2023-01-11T14:19:32.324Z,9.40
2023-01-11T14:22:13.900Z,9.40
2023-01-11T14:24:48.637Z,9.40
2023-01-11T14:27:39.436Z,9.30
2023-01-11T14:30:29.258Z,9.30
2023-01-11T14:33:21.901Z,9.20
2023-01-11T14:36:14.146Z,9.20
2023-01-11T14:39:06.466Z,9.20
2023-01-11T14:42:25.653Z,9.20
2023-01-11T14:45:34.628Z,9.10
2023-01-11T14:48:28.175Z,9.10
2023-01-11T14:51:12.478Z,9.10
2023-01-11T14:53:45.071Z,9.00
2023-01-11T14:56:36.103Z,9.10
2023-01-11T14:59:06.998Z,9.00
2023-01-11T15:02:23.558Z,9.00
2023-01-11T15:05:08.381Z,8.90
2023-01-11T15:07:39.764Z,8.90
2023-01-11T15:10:45.703Z,8.80
2023-01-11T15:13:17.914Z,8.90
2023-01-11T15:16:03.631Z,8.90
2023-01-11T15:18:32.740Z,8.80
2023-01-11T15:21:07.356Z,8.90
2023-01-11T15:23:38.341Z,8.80
2023-01-11T15:26:09.406Z,8.80
2023-01-11T15:28:45.877Z,8.80
2023-01-11T15:31:34.521Z,8.80
2023-01-11T15:34:06.351Z,8.80
2023-01-11T15:37:00.345Z,8.70
2023-01-11T15:39:41.210Z,8.70
2023-01-11T15:42:44.177Z,8.60
2023-01-11T15:46:03.333Z,8.60
2023-01-11T15:48:47.295Z,8.60
2023-01-11T15:51:27.517Z,8.60
2023-01-11T15:54:39.727Z,8.60
2023-01-11T15:57:40.518Z,8.60
2023-01-11T16:00:46.481Z,8.50
2023-01-11T16:03:49.741Z,8.50
2023-01-11T16:06:29.856Z,8.50
2023-01-11T16:09:09.153Z,8.40
2023-01-11T16:11:56.810Z,8.40
2023-01-11T16:14:46.217Z,8.30
2023-01-11T16:17:16.761Z,8.30
2023-01-11T16:19:46.415Z,8.30
2023-01-11T16:22:19.664Z,8.30
2023-01-11T16:24:52.895Z,8.30
2023-01-11T16:27:26.307Z,8.20
2023-01-11T16:29:54.718Z,8.20
2023-01-11T16:32:26.945Z,8.20
2023-01-11T16:34:55.699Z,8.10
2023-01-11T16:37:32.099Z,8.10
2023-01-11T16:40:09.290Z,8.10
2023-01-11T16:42:43.744Z,8.10
2023-01-11T16:45:16.006Z,8.10
2023-01-11T16:47:44.333Z,8.00
2023-01-11T16:50:22.117Z,8.10
2023-01-11T16:52:53.521Z,8.00
2023-01-11T16:55:30.679Z,8.10
2023-01-11T16:58:03.064Z,8.00
2023-01-11T17:00:35.973Z,8.00
2023-01-11T17:03:21.521Z,8.00
2023-01-11T17:06:15.287Z,8.00
2023-01-11T17:08:45.009Z,7.90
2023-01-11T17:11:31.268Z,8.00
2023-01-11T17:14:15.910Z,7.90
2023-01-11T17:16:47.417Z,7.90
2023-01-11T17:19:18.334Z,7.90
2023-01-11T17:21:49.760Z,7.90
2023-01-11T17:24:23.225Z,7.90
2023-01-11T17:26:54.688Z,7.80
2023-01-11T17:29:29.356Z,7.80
2023-01-11T17:31:59.784Z,7.80
2023-01-11T17:34:31.399Z,7.80
2023-01-11T17:37:00.477Z,7.80
2023-01-11T17:39:32.164Z,7.80
2023-01-11T17:42:19.953Z,7.80
2023-01-11T17:45:08.704Z,7.80
2023-01-11T17:47:39.646Z,7.80
2023-01-11T17:50:18.727Z,7.80
2023-01-11T17:52:54.752Z,7.80
2023-01-11T17:55:26.652Z,7.80
2023-01-11T17:58:19.469Z,7.80
2023-01-11T18:01:26.770Z,7.70
2023-01-11T18:03:58.544Z,7.70
2023-01-11T18:06:36.429Z,7.70
2023-01-11T18:09:08.051Z,7.70
2023-01-11T18:11:41.056Z,7.60
2023-01-11T18:14:22.584Z,7.60
2023-01-11T18:17:02.186Z,7.70
2023-01-11T18:19:39.808Z,7.70
2023-01-11T18:22:31.651Z,7.70
2023-01-11T18:25:04.432Z,7.70
2023-01-11T18:27:38.586Z,7.70
2023-01-11T18:30:11.881Z,7.60
2023-01-11T18:32:48.169Z,7.60
2023-01-11T18:35:19.450Z,7.60
2023-01-11T18:37:49.778Z,7.60
2023-01-11T18:40:20.516Z,7.60
2023-01-11T18:42:53.174Z,7.60
2023-01-11T18:45:25.158Z,7.60
2023-01-11T18:47:55.529Z,7.60
2023-01-11T18:50:25.457Z,7.50
2023-01-11T18:52:55.260Z,7.60
2023-01-11T18:55:24.788Z,7.60
2023-01-11T18:57:53.956Z,7.60
2023-01-11T19:00:23.446Z,7.60
2023-01-11T19:02:53.589Z,7.60
2023-01-11T19:05:25.674Z,7.60
2023-01-11T19:07:54.967Z,7.60
2023-01-11T19:10:25.351Z,7.60
2023-01-11T19:12:57.534Z,7.50
2023-01-11T19:15:28.305Z,7.50
2023-01-11T19:17:57.770Z,7.60
2023-01-11T19:20:29.123Z,7.50
2023-01-11T19:22:58.547Z,7.50
2023-01-11T19:25:28.292Z,7.50
2023-01-11T19:27:56.698Z,7.50
2023-01-11T19:30:24.745Z,7.50
2023-01-11T19:32:53.425Z,7.50
2023-01-11T19:35:22.171Z,7.50
2023-01-11T19:37:51.609Z,7.50
2023-01-11T19:40:21.276Z,7.50
2023-01-11T19:42:52.263Z,7.40
2023-01-11T19:45:20.513Z,7.40
2023-01-11T19:47:48.545Z,7.40
2023-01-11T19:50:17.847Z,7.40
2023-01-11T19:52:46.795Z,7.40
2023-01-11T19:55:17.456Z,7.40
2023-01-11T19:57:48.429Z,7.40
2023-01-11T20:00:19.393Z,7.40
2023-01-11T20:02:49.192Z,7.40
2023-01-11T20:05:18.893Z,7.40
2023-01-11T20:07:49.861Z,7.30
2023-01-11T20:10:21.778Z,7.40
2023-01-11T20:12:51.442Z,7.30
2023-01-11T20:15:21.951Z,7.30
2023-01-11T20:17:52.068Z,7.30
2023-01-11T20:20:22.174Z,7.30
2023-01-11T20:22:52.601Z,7.30
2023-01-11T20:25:25.963Z,7.30
2023-01-11T20:27:56.048Z,7.30
2023-01-11T20:30:26.541Z,7.30
2023-01-11T20:32:56.150Z,7.30
2023-01-11T20:35:25.576Z,7.30
2023-01-11T20:37:55.156Z,7.30
2023-01-11T20:40:28.522Z,7.30
2023-01-11T20:42:57.794Z,7.30
2023-01-11T20:45:29.625Z,7.20
2023-01-11T20:48:01.302Z,7.20
2023-01-11T20:50:30.977Z,7.30
2023-01-11T20:53:01.027Z,7.30
2023-01-11T20:55:32.511Z,7.30
2023-01-11T20:58:02.634Z,7.30
2023-01-11T21:00:33.618Z,7.30
2023-01-11T21:03:01.674Z,7.20
2023-01-11T21:05:30.008Z,7.30
2023-01-11T21:07:58.061Z,7.30
2023-01-11T21:10:26.076Z,7.30
2023-01-11T21:12:57.584Z,7.20
2023-01-11T21:15:25.760Z,7.30
2023-01-11T21:17:53.772Z,7.30
2023-01-11T21:20:21.775Z,7.30
2023-01-11T21:22:49.759Z,7.30
2023-01-11T21:25:18.228Z,7.30
2023-01-11T21:27:46.220Z,7.30
2023-01-11T21:30:15.948Z,7.30
2023-01-11T21:32:45.240Z,7.30
2023-01-11T21:35:14.768Z,7.30
2023-01-11T21:37:45.271Z,7.30
2023-01-11T21:40:16.756Z,7.30
2023-01-11T21:42:45.523Z,7.30
2023-01-11T21:45:14.913Z,7.40
2023-01-11T21:47:45.512Z,7.40
2023-01-11T21:50:13.589Z,7.40
2023-01-11T21:52:41.630Z,7.40
2023-01-11T21:55:11.182Z,7.40
2023-01-11T21:57:39.206Z,7.40
2023-01-11T22:00:08.284Z,7.40
2023-01-11T22:02:41.531Z,7.50
2023-01-11T22:05:10.548Z,7.50
2023-01-11T22:07:40.724Z,7.50
2023-01-11T22:10:09.711Z,7.50
2023-01-11T22:12:37.763Z,7.50
2023-01-11T22:15:06.407Z,7.50
2023-01-11T22:17:34.455Z,7.50
2023-01-11T22:20:03.892Z,7.40
2023-01-11T22:22:32.042Z,7.40
2023-01-11T22:25:00.171Z,7.40
2023-01-11T22:27:28.208Z,7.40
2023-01-11T22:29:56.211Z,7.40
2023-01-11T22:32:24.336Z,7.40
2023-01-11T22:34:52.364Z,7.30
2023-01-11T22:37:22.254Z,7.30
2023-01-11T22:39:50.279Z,7.40
2023-01-11T22:42:18.273Z,7.40
2023-01-11T22:44:46.305Z,7.40
2023-01-11T22:47:14.305Z,7.40
2023-01-11T22:49:42.308Z,7.40
2023-01-11T22:52:10.339Z,7.40
2023-01-11T22:54:39.714Z,7.40
2023-01-11T22:57:07.705Z,7.40
2023-01-11T22:59:35.694Z,7.40
2023-01-11T23:02:03.716Z,7.50
2023-01-11T23:04:33.172Z,7.40
2023-01-11T23:07:01.202Z,7.40
2023-01-11T23:09:29.212Z,7.40
2023-01-11T23:12:15.878Z,7.40
2023-01-11T23:14:44.431Z,7.40
2023-01-11T23:17:12.439Z,7.40
2023-01-11T23:19:42.185Z,7.50
2023-01-11T23:22:11.129Z,7.40
2023-01-11T23:24:39.842Z,7.50
2023-01-11T23:27:09.268Z,7.50
2023-01-11T23:29:37.299Z,7.50
2023-01-11T23:32:05.687Z,7.50
2023-01-11T23:34:33.746Z,7.50
2023-01-11T23:37:01.783Z,7.50
2023-01-11T23:39:30.636Z,7.50
2023-01-11T23:42:16.172Z,7.60
2023-01-11T23:44:46.797Z,7.60
2023-01-11T23:47:24.763Z,7.60
2023-01-11T23:49:54.240Z,7.60
2023-01-11T23:52:24.555Z,7.50
2023-01-11T23:54:52.585Z,7.60
2023-01-11T23:57:21.937Z,7.60
2023-01-11T23:59:51.335Z,7.60
